sensor_id;sensor_type;location;lat;lon;timestamp;temperature;humidity
1259;DHT22;619;51.472;6.628;2022-10-16T00:01:17;19.50;87.40
1259;DHT22;619;51.472;6.628;2022-10-16T00:03:46;19.50;87.40
1259;DHT22;619;51.472;6.628;2022-10-16T00:06:14;19.50;87.40
1259;DHT22;619;51.472;6.628;2022-10-16T00:08:41;19.40;87.30
1259;DHT22;619;51.472;6.628;2022-10-16T00:11:12;19.40;87.40
1259;DHT22;619;51.472;6.628;2022-10-16T00:13:42;19.40;87.30
1259;DHT22;619;51.472;6.628;2022-10-16T00:16:09;19.40;87.30
1259;DHT22;619;51.472;6.628;2022-10-16T00:18:35;19.40;87.30
1259;DHT22;619;51.472;6.628;2022-10-16T00:21:04;19.40;87.20
1259;DHT22;619;51.472;6.628;2022-10-16T00:23:31;19.40;87.20
1259;DHT22;619;51.472;6.628;2022-10-16T00:25:59;19.40;87.30
1259;DHT22;619;51.472;6.628;2022-10-16T00:28:25;19.40;87.40
1259;DHT22;619;51.472;6.628;2022-10-16T00:30:53;19.40;87.40
1259;DHT22;619;51.472;6.628;2022-10-16T00:33:21;19.40;87.40
1259;DHT22;619;51.472;6.628;2022-10-16T00:35:50;19.40;87.40
1259;DHT22;619;51.472;6.628;2022-10-16T00:38:16;19.40;87.40
1259;DHT22;619;51.472;6.628;2022-10-16T00:40:43;19.30;87.30
1259;DHT22;619;51.472;6.628;2022-10-16T00:46:00;19.40;87.50
1259;DHT22;619;51.472;6.628;2022-10-16T00:48:26;19.40;87.50
1259;DHT22;619;51.472;6.628;2022-10-16T00:50:53;19.40;87.60
1259;DHT22;619;51.472;6.628;2022-10-16T00:53:19;19.30;87.50
1259;DHT22;619;51.472;6.628;2022-10-16T00:55:45;19.30;87.50
1259;DHT22;619;51.472;6.628;2022-10-16T00:58:11;19.30;87.60
1259;DHT22;619;51.472;6.628;2022-10-16T01:00:39;19.30;87.60
1259;DHT22;619;51.472;6.628;2022-10-16T01:03:33;19.30;87.70
1259;DHT22;619;51.472;6.628;2022-10-16T01:17:09;19.20;87.50
1259;DHT22;619;51.472;6.628;2022-10-16T01:20:03;19.30;87.60
1259;DHT22;619;51.472;6.628;2022-10-16T01:22:50;19.20;87.50
1259;DHT22;619;51.472;6.628;2022-10-16T01:25:36;19.20;87.40
1259;DHT22;619;51.472;6.628;2022-10-16T01:28:05;19.20;87.50
1259;DHT22;619;51.472;6.628;2022-10-16T01:30:32;19.20;87.50
1259;DHT22;619;51.472;6.628;2022-10-16T01:33:01;19.20;87.50
1259;DHT22;619;51.472;6.628;2022-10-16T01:35:30;19.30;87.70
1259;DHT22;619;51.472;6.628;2022-10-16T01:38:03;19.30;87.70
1259;DHT22;619;51.472;6.628;2022-10-16T01:40:34;19.30;87.70
1259;DHT22;619;51.472;6.628;2022-10-16T01:43:28;19.40;87.70
1259;DHT22;619;51.472;6.628;2022-10-16T01:45:59;19.40;87.60
1259;DHT22;619;51.472;6.628;2022-10-16T01:48:25;19.40;87.30
1259;DHT22;619;51.472;6.628;2022-10-16T01:51:08;19.50;87.30
1259;DHT22;619;51.472;6.628;2022-10-16T01:53:40;19.50;87.10
1259;DHT22;619;51.472;6.628;2022-10-16T01:56:10;19.50;86.90
1259;DHT22;619;51.472;6.628;2022-10-16T01:58:43;19.50;87.50
1259;DHT22;619;51.472;6.628;2022-10-16T02:01:15;19.50;86.70
1259;DHT22;619;51.472;6.628;2022-10-16T02:03:43;19.40;86.50
1259;DHT22;619;51.472;6.628;2022-10-16T02:06:09;19.40;86.60
1259;DHT22;619;51.472;6.628;2022-10-16T02:08:38;19.40;86.50
1259;DHT22;619;51.472;6.628;2022-10-16T02:11:06;19.30;86.50
1259;DHT22;619;51.472;6.628;2022-10-16T02:16:03;19.30;86.80
1259;DHT22;619;51.472;6.628;2022-10-16T02:18:29;19.20;86.70
1259;DHT22;619;51.472;6.628;2022-10-16T02:20:59;19.20;86.80
1259;DHT22;619;51.472;6.628;2022-10-16T02:23:37;19.20;86.90
1259;DHT22;619;51.472;6.628;2022-10-16T02:26:08;19.20;87.00
1259;DHT22;619;51.472;6.628;2022-10-16T02:28:42;19.20;87.00
1259;DHT22;619;51.472;6.628;2022-10-16T02:31:11;19.20;87.10
1259;DHT22;619;51.472;6.628;2022-10-16T02:33:40;19.10;87.00
1259;DHT22;619;51.472;6.628;2022-10-16T02:36:10;19.10;87.00
1259;DHT22;619;51.472;6.628;2022-10-16T02:38:36;19.10;86.90
1259;DHT22;619;51.472;6.628;2022-10-16T02:41:05;19.10;87.00
1259;DHT22;619;51.472;6.628;2022-10-16T02:43:31;19.00;86.90
1259;DHT22;619;51.472;6.628;2022-10-16T02:45:59;19.00;87.20
1259;DHT22;619;51.472;6.628;2022-10-16T02:48:27;19.00;87.20
1259;DHT22;619;51.472;6.628;2022-10-16T02:50:53;19.00;87.30
1259;DHT22;619;51.472;6.628;2022-10-16T02:53:18;19.00;87.40
1259;DHT22;619;51.472;6.628;2022-10-16T02:55:47;18.90;87.30
1259;DHT22;619;51.472;6.628;2022-10-16T02:58:12;18.90;87.30
1259;DHT22;619;51.472;6.628;2022-10-16T03:00:38;18.90;87.40
1259;DHT22;619;51.472;6.628;2022-10-16T03:03:03;18.90;87.30
1259;DHT22;619;51.472;6.628;2022-10-16T03:05:29;18.90;87.20
1259;DHT22;619;51.472;6.628;2022-10-16T03:07:55;19.00;87.30
1259;DHT22;619;51.472;6.628;2022-10-16T03:10:23;19.00;87.20
1259;DHT22;619;51.472;6.628;2022-10-16T03:12:51;19.00;87.20
1259;DHT22;619;51.472;6.628;2022-10-16T03:15:19;19.00;87.20
1259;DHT22;619;51.472;6.628;2022-10-16T03:17:47;19.00;87.00
1259;DHT22;619;51.472;6.628;2022-10-16T03:20:13;19.00;86.90
1259;DHT22;619;51.472;6.628;2022-10-16T03:22:38;19.00;87.20
1259;DHT22;619;51.472;6.628;2022-10-16T03:25:04;19.00;86.60
1259;DHT22;619;51.472;6.628;2022-10-16T03:27:33;19.10;86.70
1259;DHT22;619;51.472;6.628;2022-10-16T03:29:59;19.10;86.50
1259;DHT22;619;51.472;6.628;2022-10-16T03:32:27;19.10;86.40
1259;DHT22;619;51.472;6.628;2022-10-16T03:34:53;19.10;86.30
1259;DHT22;619;51.472;6.628;2022-10-16T03:37:19;19.10;86.20
1259;DHT22;619;51.472;6.628;2022-10-16T03:39:47;19.10;86.20
1259;DHT22;619;51.472;6.628;2022-10-16T03:42:13;19.10;86.20
1259;DHT22;619;51.472;6.628;2022-10-16T03:44:38;19.10;86.10
1259;DHT22;619;51.472;6.628;2022-10-16T03:47:04;19.10;86.00
1259;DHT22;619;51.472;6.628;2022-10-16T03:49:29;19.00;85.90
1259;DHT22;619;51.472;6.628;2022-10-16T03:51:57;19.00;86.00
1259;DHT22;619;51.472;6.628;2022-10-16T03:54:23;19.10;86.00
1259;DHT22;619;51.472;6.628;2022-10-16T03:56:48;19.10;86.00
1259;DHT22;619;51.472;6.628;2022-10-16T03:59:14;19.10;85.90
1259;DHT22;619;51.472;6.628;2022-10-16T04:01:42;19.10;85.90
1259;DHT22;619;51.472;6.628;2022-10-16T04:04:08;19.10;85.80
1259;DHT22;619;51.472;6.628;2022-10-16T04:06:33;19.10;85.60
1259;DHT22;619;51.472;6.628;2022-10-16T04:09:01;19.10;85.60
1259;DHT22;619;51.472;6.628;2022-10-16T04:11:27;19.20;85.60
1259;DHT22;619;51.472;6.628;2022-10-16T04:13:52;19.20;85.40
1259;DHT22;619;51.472;6.628;2022-10-16T04:16:18;19.20;85.30
1259;DHT22;619;51.472;6.628;2022-10-16T04:18:44;19.20;85.20
1259;DHT22;619;51.472;6.628;2022-10-16T04:21:09;19.20;85.10
1259;DHT22;619;51.472;6.628;2022-10-16T04:23:35;19.20;85.10
1259;DHT22;619;51.472;6.628;2022-10-16T04:26:01;19.20;85.00
1259;DHT22;619;51.472;6.628;2022-10-16T04:28:27;19.20;85.70
1259;DHT22;619;51.472;6.628;2022-10-16T04:30:55;19.20;84.80
1259;DHT22;619;51.472;6.628;2022-10-16T04:33:20;19.20;84.80
1259;DHT22;619;51.472;6.628;2022-10-16T04:35:46;19.20;84.70
1259;DHT22;619;51.472;6.628;2022-10-16T04:38:12;19.20;84.50
1259;DHT22;619;51.472;6.628;2022-10-16T04:40:37;19.20;84.50
1259;DHT22;619;51.472;6.628;2022-10-16T04:43:04;19.20;84.50
1259;DHT22;619;51.472;6.628;2022-10-16T04:45:32;19.20;84.60
1259;DHT22;619;51.472;6.628;2022-10-16T04:48:01;19.20;84.50
1259;DHT22;619;51.472;6.628;2022-10-16T04:50:26;19.20;84.60
1259;DHT22;619;51.472;6.628;2022-10-16T04:52:52;19.20;84.60
1259;DHT22;619;51.472;6.628;2022-10-16T04:55:20;19.20;84.60
1259;DHT22;619;51.472;6.628;2022-10-16T04:57:45;19.20;84.70
1259;DHT22;619;51.472;6.628;2022-10-16T05:00:13;19.20;84.70
1259;DHT22;619;51.472;6.628;2022-10-16T05:02:41;19.20;85.30
1259;DHT22;619;51.472;6.628;2022-10-16T05:05:07;19.20;84.70
1259;DHT22;619;51.472;6.628;2022-10-16T05:07:32;19.10;84.60
1259;DHT22;619;51.472;6.628;2022-10-16T05:10:00;19.10;84.50
1259;DHT22;619;51.472;6.628;2022-10-16T05:12:28;19.20;84.50
1259;DHT22;619;51.472;6.628;2022-10-16T05:14:54;19.20;84.60
1259;DHT22;619;51.472;6.628;2022-10-16T05:17:24;19.20;84.50
1259;DHT22;619;51.472;6.628;2022-10-16T05:19:50;19.10;84.50
1259;DHT22;619;51.472;6.628;2022-10-16T05:22:16;19.10;84.60
1259;DHT22;619;51.472;6.628;2022-10-16T05:24:41;19.10;84.50
1259;DHT22;619;51.472;6.628;2022-10-16T05:27:09;19.10;84.50
1259;DHT22;619;51.472;6.628;2022-10-16T05:29:36;19.10;84.60
1259;DHT22;619;51.472;6.628;2022-10-16T05:32:01;19.10;84.70
1259;DHT22;619;51.472;6.628;2022-10-16T05:34:27;19.10;84.80
1259;DHT22;619;51.472;6.628;2022-10-16T05:36:53;19.00;84.80
1259;DHT22;619;51.472;6.628;2022-10-16T05:39:18;19.00;84.80
1259;DHT22;619;51.472;6.628;2022-10-16T05:41:49;19.00;84.80
1259;DHT22;619;51.472;6.628;2022-10-16T05:44:14;19.00;85.00
1259;DHT22;619;51.472;6.628;2022-10-16T05:46:40;19.00;85.00
1259;DHT22;619;51.472;6.628;2022-10-16T05:49:05;19.00;85.10
1259;DHT22;619;51.472;6.628;2022-10-16T05:51:31;19.00;85.10
1259;DHT22;619;51.472;6.628;2022-10-16T05:53:57;18.90;85.00
1259;DHT22;619;51.472;6.628;2022-10-16T05:56:22;18.90;85.10
1259;DHT22;619;51.472;6.628;2022-10-16T05:58:48;18.90;85.20
1259;DHT22;619;51.472;6.628;2022-10-16T06:01:15;18.90;85.30
1259;DHT22;619;51.472;6.628;2022-10-16T06:03:42;18.80;85.20
1259;DHT22;619;51.472;6.628;2022-10-16T06:06:15;18.80;85.30
1259;DHT22;619;51.472;6.628;2022-10-16T06:08:44;18.90;86.20
1259;DHT22;619;51.472;6.628;2022-10-16T06:11:18;18.80;85.30
1259;DHT22;619;51.472;6.628;2022-10-16T06:13:52;18.80;85.50
1259;DHT22;619;51.472;6.628;2022-10-16T06:16:22;18.80;85.70
1259;DHT22;619;51.472;6.628;2022-10-16T06:18:54;18.80;85.70
1259;DHT22;619;51.472;6.628;2022-10-16T06:21:23;18.80;85.80
1259;DHT22;619;51.472;6.628;2022-10-16T06:23:50;18.80;86.00
1259;DHT22;619;51.472;6.628;2022-10-16T06:26:22;18.80;86.00
1259;DHT22;619;51.472;6.628;2022-10-16T06:28:48;18.80;86.00
1259;DHT22;619;51.472;6.628;2022-10-16T06:31:18;18.80;86.00
1259;DHT22;619;51.472;6.628;2022-10-16T06:33:44;18.80;86.20
1259;DHT22;619;51.472;6.628;2022-10-16T06:36:16;18.80;86.30
1259;DHT22;619;51.472;6.628;2022-10-16T06:38:42;18.80;86.30
1259;DHT22;619;51.472;6.628;2022-10-16T06:41:16;18.80;86.30
1259;DHT22;619;51.472;6.628;2022-10-16T06:43:44;18.90;86.40
1259;DHT22;619;51.472;6.628;2022-10-16T06:46:12;18.90;86.30
1259;DHT22;619;51.472;6.628;2022-10-16T06:48:41;18.90;86.30
1259;DHT22;619;51.472;6.628;2022-10-16T06:51:18;18.90;86.20
1259;DHT22;619;51.472;6.628;2022-10-16T06:53:51;18.90;86.20
1259;DHT22;619;51.472;6.628;2022-10-16T06:56:19;18.90;86.10
1259;DHT22;619;51.472;6.628;2022-10-16T06:58:48;18.90;86.20
1259;DHT22;619;51.472;6.628;2022-10-16T07:01:18;18.90;86.40
1259;DHT22;619;51.472;6.628;2022-10-16T07:03:49;18.90;86.30
1259;DHT22;619;51.472;6.628;2022-10-16T07:06:19;18.90;86.40
1259;DHT22;619;51.472;6.628;2022-10-16T07:08:49;18.90;86.40
1259;DHT22;619;51.472;6.628;2022-10-16T07:11:19;18.90;86.40
1259;DHT22;619;51.472;6.628;2022-10-16T07:13:46;18.90;86.40
1259;DHT22;619;51.472;6.628;2022-10-16T07:16:17;18.90;86.40
1259;DHT22;619;51.472;6.628;2022-10-16T07:18:44;18.90;86.40
1259;DHT22;619;51.472;6.628;2022-10-16T07:21:32;18.90;86.50
1259;DHT22;619;51.472;6.628;2022-10-16T07:24:01;19.00;86.80
1259;DHT22;619;51.472;6.628;2022-10-16T07:26:28;19.00;86.80
1259;DHT22;619;51.472;6.628;2022-10-16T07:28:55;19.00;86.80
1259;DHT22;619;51.472;6.628;2022-10-16T07:31:22;19.10;86.90
1259;DHT22;619;51.472;6.628;2022-10-16T07:33:49;19.10;86.90
1259;DHT22;619;51.472;6.628;2022-10-16T07:36:17;19.20;86.90
1259;DHT22;619;51.472;6.628;2022-10-16T07:38:44;19.20;86.80
1259;DHT22;619;51.472;6.628;2022-10-16T07:41:14;19.30;86.80
1259;DHT22;619;51.472;6.628;2022-10-16T07:43:54;19.30;86.70
1259;DHT22;619;51.472;6.628;2022-10-16T07:46:25;19.40;86.60
1259;DHT22;619;51.472;6.628;2022-10-16T07:48:51;19.50;86.60
1259;DHT22;619;51.472;6.628;2022-10-16T07:51:23;19.50;86.40
1259;DHT22;619;51.472;6.628;2022-10-16T07:53:55;19.60;86.30
1259;DHT22;619;51.472;6.628;2022-10-16T07:56:21;19.70;86.30
1259;DHT22;619;51.472;6.628;2022-10-16T07:58:47;19.70;86.10
1259;DHT22;619;51.472;6.628;2022-10-16T08:01:16;19.80;86.20
1259;DHT22;619;51.472;6.628;2022-10-16T08:03:46;19.90;86.20
1259;DHT22;619;51.472;6.628;2022-10-16T08:06:12;19.90;86.00
1259;DHT22;619;51.472;6.628;2022-10-16T08:08:40;20.00;85.90
1259;DHT22;619;51.472;6.628;2022-10-16T08:11:08;20.10;85.70
1259;DHT22;619;51.472;6.628;2022-10-16T08:13:34;20.20;85.50
1259;DHT22;619;51.472;6.628;2022-10-16T08:16:00;20.30;85.40
1259;DHT22;619;51.472;6.628;2022-10-16T08:18:29;20.30;85.10
1259;DHT22;619;51.472;6.628;2022-10-16T08:20:58;20.40;85.00
1259;DHT22;619;51.472;6.628;2022-10-16T08:23:30;20.50;84.90
1259;DHT22;619;51.472;6.628;2022-10-16T08:26:03;20.60;84.60
1259;DHT22;619;51.472;6.628;2022-10-16T08:28:28;20.70;84.40
1259;DHT22;619;51.472;6.628;2022-10-16T08:31:05;20.70;84.20
1259;DHT22;619;51.472;6.628;2022-10-16T08:33:30;20.90;84.00
1259;DHT22;619;51.472;6.628;2022-10-16T08:35:56;21.00;83.80
1259;DHT22;619;51.472;6.628;2022-10-16T08:38:21;21.10;83.50
1259;DHT22;619;51.472;6.628;2022-10-16T08:40:49;21.20;83.30
1259;DHT22;619;51.472;6.628;2022-10-16T08:43:31;21.30;83.00
1259;DHT22;619;51.472;6.628;2022-10-16T08:51:10;21.50;82.00
1259;DHT22;619;51.472;6.628;2022-10-16T08:53:44;21.60;81.80
1259;DHT22;619;51.472;6.628;2022-10-16T08:56:11;21.60;81.20
1259;DHT22;619;51.472;6.628;2022-10-16T08:58:37;21.60;81.10
1259;DHT22;619;51.472;6.628;2022-10-16T09:01:13;21.70;81.00
1259;DHT22;619;51.472;6.628;2022-10-16T09:09:03;22.00;80.70
1259;DHT22;619;51.472;6.628;2022-10-16T09:22:46;22.50;79.60
1259;DHT22;619;51.472;6.628;2022-10-16T09:25:15;22.60;78.80
1259;DHT22;619;51.472;6.628;2022-10-16T09:27:47;22.60;77.90
1259;DHT22;619;51.472;6.628;2022-10-16T09:30:16;22.70;77.80
1259;DHT22;619;51.472;6.628;2022-10-16T09:32:46;22.80;77.60
1259;DHT22;619;51.472;6.628;2022-10-16T09:35:40;22.80;77.20
1259;DHT22;619;51.472;6.628;2022-10-16T09:38:06;22.90;77.10
1259;DHT22;619;51.472;6.628;2022-10-16T09:40:35;23.00;76.90
1259;DHT22;619;51.472;6.628;2022-10-16T09:43:24;23.10;76.80
1259;DHT22;619;51.472;6.628;2022-10-16T09:45:59;23.20;75.90
1259;DHT22;619;51.472;6.628;2022-10-16T09:48:37;23.30;76.40
1259;DHT22;619;51.472;6.628;2022-10-16T09:51:24;23.50;76.00
1259;DHT22;619;51.472;6.628;2022-10-16T09:53:55;23.60;75.40
1259;DHT22;619;51.472;6.628;2022-10-16T09:56:27;23.70;74.00
1259;DHT22;619;51.472;6.628;2022-10-16T09:58:57;23.70;73.50
1259;DHT22;619;51.472;6.628;2022-10-16T10:01:36;23.70;73.00
1259;DHT22;619;51.472;6.628;2022-10-16T10:04:03;23.80;73.20
1259;DHT22;619;51.472;6.628;2022-10-16T10:06:33;23.80;73.10
1259;DHT22;619;51.472;6.628;2022-10-16T10:14:22;23.80;71.90
1259;DHT22;619;51.472;6.628;2022-10-16T10:16:49;23.80;71.90
1259;DHT22;619;51.472;6.628;2022-10-16T10:19:21;23.80;71.80
1259;DHT22;619;51.472;6.628;2022-10-16T10:21:47;23.80;71.80
1259;DHT22;619;51.472;6.628;2022-10-16T10:24:17;23.80;72.20
1259;DHT22;619;51.472;6.628;2022-10-16T10:26:57;23.90;71.30
1259;DHT22;619;51.472;6.628;2022-10-16T10:38:04;23.90;70.80
1259;DHT22;619;51.472;6.628;2022-10-16T10:40:52;23.90;70.20
1259;DHT22;619;51.472;6.628;2022-10-16T10:43:45;24.10;70.80
1259;DHT22;619;51.472;6.628;2022-10-16T10:46:36;24.20;70.60
1259;DHT22;619;51.472;6.628;2022-10-16T10:49:19;24.50;70.40
1259;DHT22;619;51.472;6.628;2022-10-16T10:54:52;24.80;69.60
1259;DHT22;619;51.472;6.628;2022-10-16T10:57:29;24.90;68.90
1259;DHT22;619;51.472;6.628;2022-10-16T11:05:51;25.60;67.80
1259;DHT22;619;51.472;6.628;2022-10-16T11:08:59;25.80;67.40
1259;DHT22;619;51.472;6.628;2022-10-16T11:11:35;26.00;66.90
1259;DHT22;619;51.472;6.628;2022-10-16T11:14:19;26.20;65.30
1259;DHT22;619;51.472;6.628;2022-10-16T11:16:56;26.40;64.80
1259;DHT22;619;51.472;6.628;2022-10-16T11:19:49;26.50;64.00
1259;DHT22;619;51.472;6.628;2022-10-16T11:22:39;26.70;63.40
1259;DHT22;619;51.472;6.628;2022-10-16T11:25:28;26.90;63.00
1259;DHT22;619;51.472;6.628;2022-10-16T11:31:08;27.20;62.90
1259;DHT22;619;51.472;6.628;2022-10-16T11:41:37;27.40;61.60
1259;DHT22;619;51.472;6.628;2022-10-16T11:46:48;27.60;61.20
1259;DHT22;619;51.472;6.628;2022-10-16T11:49:19;27.70;60.80
1259;DHT22;619;51.472;6.628;2022-10-16T11:57:17;28.00;59.30
1259;DHT22;619;51.472;6.628;2022-10-16T11:59:54;28.00;59.70
1259;DHT22;619;51.472;6.628;2022-10-16T12:05:42;28.20;59.40
1259;DHT22;619;51.472;6.628;2022-10-16T12:08:15;28.20;58.70
1259;DHT22;619;51.472;6.628;2022-10-16T12:10:44;28.10;58.50
1259;DHT22;619;51.472;6.628;2022-10-16T12:18:37;28.10;59.00
1259;DHT22;619;51.472;6.628;2022-10-16T12:21:03;28.20;59.10
1259;DHT22;619;51.472;6.628;2022-10-16T12:23:56;28.20;58.80
1259;DHT22;619;51.472;6.628;2022-10-16T12:26:31;28.20;58.30
1259;DHT22;619;51.472;6.628;2022-10-16T12:31:48;27.90;58.60
1259;DHT22;619;51.472;6.628;2022-10-16T12:36:55;27.30;59.70
1259;DHT22;619;51.472;6.628;2022-10-16T12:39:35;27.10;60.10
1259;DHT22;619;51.472;6.628;2022-10-16T12:44:55;26.60;61.10
1259;DHT22;619;51.472;6.628;2022-10-16T12:47:37;26.40;61.60
1259;DHT22;619;51.472;6.628;2022-10-16T12:50:36;26.30;62.00
1259;DHT22;619;51.472;6.628;2022-10-16T12:53:20;26.10;62.40
1259;DHT22;619;51.472;6.628;2022-10-16T12:55:55;26.10;63.00
1259;DHT22;619;51.472;6.628;2022-10-16T13:01:26;26.20;62.80
1259;DHT22;619;51.472;6.628;2022-10-16T13:15:00;26.90;60.80
1259;DHT22;619;51.472;6.628;2022-10-16T13:28:45;27.30;58.70
1259;DHT22;619;51.472;6.628;2022-10-16T13:31:22;27.20;59.00
1259;DHT22;619;51.472;6.628;2022-10-16T13:33:59;27.00;59.00
1259;DHT22;619;51.472;6.628;2022-10-16T13:36:49;26.80;59.30
1259;DHT22;619;51.472;6.628;2022-10-16T13:42:11;26.60;60.10
1259;DHT22;619;51.472;6.628;2022-10-16T13:44:45;26.50;60.50
1259;DHT22;619;51.472;6.628;2022-10-16T13:47:24;26.40;60.40
1259;DHT22;619;51.472;6.628;2022-10-16T13:50:05;26.40;60.50
1259;DHT22;619;51.472;6.628;2022-10-16T13:52:31;26.30;60.90
1259;DHT22;619;51.472;6.628;2022-10-16T13:55:00;26.40;61.10
1259;DHT22;619;51.472;6.628;2022-10-16T13:57:25;26.40;60.50
1259;DHT22;619;51.472;6.628;2022-10-16T13:59:53;26.50;60.80
1259;DHT22;619;51.472;6.628;2022-10-16T14:02:33;26.70;60.30
1259;DHT22;619;51.472;6.628;2022-10-16T14:05:02;26.80;60.10
1259;DHT22;619;51.472;6.628;2022-10-16T14:07:33;26.90;59.70
1259;DHT22;619;51.472;6.628;2022-10-16T14:10:06;26.90;59.50
1259;DHT22;619;51.472;6.628;2022-10-16T14:12:32;26.70;59.40
1259;DHT22;619;51.472;6.628;2022-10-16T14:15:01;26.70;59.70
1259;DHT22;619;51.472;6.628;2022-10-16T14:17:30;26.60;60.00
1259;DHT22;619;51.472;6.628;2022-10-16T14:20:00;26.50;60.60
1259;DHT22;619;51.472;6.628;2022-10-16T14:22:33;26.40;60.70
1259;DHT22;619;51.472;6.628;2022-10-16T14:25:00;26.30;60.70
1259;DHT22;619;51.472;6.628;2022-10-16T14:27:34;26.30;61.20
1259;DHT22;619;51.472;6.628;2022-10-16T14:32:36;26.30;62.70
1259;DHT22;619;51.472;6.628;2022-10-16T14:35:02;26.40;62.50
1259;DHT22;619;51.472;6.628;2022-10-16T14:37:29;26.40;62.30
1259;DHT22;619;51.472;6.628;2022-10-16T14:40:03;26.30;62.00
1259;DHT22;619;51.472;6.628;2022-10-16T14:42:31;26.30;62.10
1259;DHT22;619;51.472;6.628;2022-10-16T14:44:57;26.30;62.60
1259;DHT22;619;51.472;6.628;2022-10-16T14:47:24;26.20;62.70
1259;DHT22;619;51.472;6.628;2022-10-16T14:49:54;26.20;62.90
1259;DHT22;619;51.472;6.628;2022-10-16T14:52:21;26.20;63.30
1259;DHT22;619;51.472;6.628;2022-10-16T14:54:50;26.20;63.80
1259;DHT22;619;51.472;6.628;2022-10-16T14:57:23;26.20;64.20
1259;DHT22;619;51.472;6.628;2022-10-16T14:59:49;26.20;64.70
1259;DHT22;619;51.472;6.628;2022-10-16T15:02:31;26.20;65.60
1259;DHT22;619;51.472;6.628;2022-10-16T15:05:02;26.20;66.60
1259;DHT22;619;51.472;6.628;2022-10-16T15:07:30;26.10;66.50
1259;DHT22;619;51.472;6.628;2022-10-16T15:09:56;26.00;66.30
1259;DHT22;619;51.472;6.628;2022-10-16T15:12:23;26.00;66.60
1259;DHT22;619;51.472;6.628;2022-10-16T15:14:48;25.90;67.70
1259;DHT22;619;51.472;6.628;2022-10-16T15:17:14;25.80;67.00
1259;DHT22;619;51.472;6.628;2022-10-16T15:19:42;25.80;67.20
1259;DHT22;619;51.472;6.628;2022-10-16T15:22:10;25.80;67.20
1259;DHT22;619;51.472;6.628;2022-10-16T15:24:36;25.70;67.20
1259;DHT22;619;51.472;6.628;2022-10-16T15:27:04;25.70;67.60
1259;DHT22;619;51.472;6.628;2022-10-16T15:29:30;25.60;68.30
1259;DHT22;619;51.472;6.628;2022-10-16T15:31:58;25.60;68.60
1259;DHT22;619;51.472;6.628;2022-10-16T15:34:23;25.60;68.60
1259;DHT22;619;51.472;6.628;2022-10-16T15:36:49;25.60;68.70
1259;DHT22;619;51.472;6.628;2022-10-16T15:39:15;25.50;69.50
1259;DHT22;619;51.472;6.628;2022-10-16T15:41:45;25.50;70.40
1259;DHT22;619;51.472;6.628;2022-10-16T15:44:19;25.40;70.90
1259;DHT22;619;51.472;6.628;2022-10-16T15:46:45;25.30;71.10
1259;DHT22;619;51.472;6.628;2022-10-16T15:49:11;25.20;70.90
1259;DHT22;619;51.472;6.628;2022-10-16T15:51:41;25.10;71.20
1259;DHT22;619;51.472;6.628;2022-10-16T15:54:07;25.00;71.80
1259;DHT22;619;51.472;6.628;2022-10-16T15:56:32;24.90;72.00
1259;DHT22;619;51.472;6.628;2022-10-16T15:58:59;24.80;72.20
1259;DHT22;619;51.472;6.628;2022-10-16T16:01:26;24.80;72.50
1259;DHT22;619;51.472;6.628;2022-10-16T16:03:55;24.70;72.80
1259;DHT22;619;51.472;6.628;2022-10-16T16:06:23;24.60;73.20
1259;DHT22;619;51.472;6.628;2022-10-16T16:08:52;24.60;73.30
1259;DHT22;619;51.472;6.628;2022-10-16T16:11:18;24.50;73.50
1259;DHT22;619;51.472;6.628;2022-10-16T16:13:47;24.40;73.90
1259;DHT22;619;51.472;6.628;2022-10-16T16:16:16;24.30;74.10
1259;DHT22;619;51.472;6.628;2022-10-16T16:18:43;24.20;74.40
1259;DHT22;619;51.472;6.628;2022-10-16T16:21:10;24.10;74.60
1259;DHT22;619;51.472;6.628;2022-10-16T16:23:41;24.00;74.80
1259;DHT22;619;51.472;6.628;2022-10-16T16:28:39;23.80;75.20
1259;DHT22;619;51.472;6.628;2022-10-16T16:31:10;23.70;75.40
1259;DHT22;619;51.472;6.628;2022-10-16T16:33:35;23.60;75.50
1259;DHT22;619;51.472;6.628;2022-10-16T16:36:05;23.50;75.60
1259;DHT22;619;51.472;6.628;2022-10-16T16:38:34;23.40;75.80
1259;DHT22;619;51.472;6.628;2022-10-16T16:41:25;23.40;76.00
1259;DHT22;619;51.472;6.628;2022-10-16T16:43:52;23.30;76.30
1259;DHT22;619;51.472;6.628;2022-10-16T16:46:20;23.10;77.10
1259;DHT22;619;51.472;6.628;2022-10-16T16:48:49;23.10;76.70
1259;DHT22;619;51.472;6.628;2022-10-16T16:51:22;23.00;76.90
1259;DHT22;619;51.472;6.628;2022-10-16T16:53:51;22.90;77.20
1259;DHT22;619;51.472;6.628;2022-10-16T16:56:17;22.80;77.50
1259;DHT22;619;51.472;6.628;2022-10-16T16:58:51;22.70;77.60
1259;DHT22;619;51.472;6.628;2022-10-16T17:01:17;22.70;77.90
1259;DHT22;619;51.472;6.628;2022-10-16T17:03:46;22.60;78.60
1259;DHT22;619;51.472;6.628;2022-10-16T17:06:15;22.50;78.00
1259;DHT22;619;51.472;6.628;2022-10-16T17:08:43;22.40;78.20
1259;DHT22;619;51.472;6.628;2022-10-16T17:11:17;22.30;78.30
1259;DHT22;619;51.472;6.628;2022-10-16T17:13:44;22.30;78.60
1259;DHT22;619;51.472;6.628;2022-10-16T17:16:12;22.30;78.90
1259;DHT22;619;51.472;6.628;2022-10-16T17:18:42;22.20;79.00
1259;DHT22;619;51.472;6.628;2022-10-16T17:21:09;22.20;79.40
1259;DHT22;619;51.472;6.628;2022-10-16T17:23:40;22.10;79.50
1259;DHT22;619;51.472;6.628;2022-10-16T17:26:12;22.10;79.50
1259;DHT22;619;51.472;6.628;2022-10-16T17:28:39;22.10;79.60
1259;DHT22;619;51.472;6.628;2022-10-16T17:33:34;22.00;79.80
1259;DHT22;619;51.472;6.628;2022-10-16T17:35:59;22.00;79.80
1259;DHT22;619;51.472;6.628;2022-10-16T17:38:27;22.00;79.90
1259;DHT22;619;51.472;6.628;2022-10-16T17:40:53;21.90;80.00
1259;DHT22;619;51.472;6.628;2022-10-16T17:43:21;21.90;80.20
1259;DHT22;619;51.472;6.628;2022-10-16T17:45:49;21.90;80.30
1259;DHT22;619;51.472;6.628;2022-10-16T17:48:19;21.90;80.30
1259;DHT22;619;51.472;6.628;2022-10-16T17:50:44;21.90;80.50
1259;DHT22;619;51.472;6.628;2022-10-16T17:53:10;21.90;80.40
1259;DHT22;619;51.472;6.628;2022-10-16T17:55:44;22.00;80.30
1259;DHT22;619;51.472;6.628;2022-10-16T17:58:09;22.00;80.10
1259;DHT22;619;51.472;6.628;2022-10-16T18:00:35;22.00;80.00
1259;DHT22;619;51.472;6.628;2022-10-16T18:03:05;22.00;79.60
1259;DHT22;619;51.472;6.628;2022-10-16T18:05:36;22.00;79.00
1259;DHT22;619;51.472;6.628;2022-10-16T18:08:05;22.00;78.60
1259;DHT22;619;51.472;6.628;2022-10-16T18:10:30;22.10;78.10
1259;DHT22;619;51.472;6.628;2022-10-16T18:12:56;22.10;77.60
1259;DHT22;619;51.472;6.628;2022-10-16T18:15:21;22.10;77.00
1259;DHT22;619;51.472;6.628;2022-10-16T18:17:47;22.20;76.60
1259;DHT22;619;51.472;6.628;2022-10-16T18:20:12;22.20;76.30
1259;DHT22;619;51.472;6.628;2022-10-16T18:22:38;22.20;76.20
1259;DHT22;619;51.472;6.628;2022-10-16T18:25:05;22.20;76.00
1259;DHT22;619;51.472;6.628;2022-10-16T18:27:33;22.20;75.90
1259;DHT22;619;51.472;6.628;2022-10-16T18:29:59;22.30;75.80
1259;DHT22;619;51.472;6.628;2022-10-16T18:32:28;22.30;75.70
1259;DHT22;619;51.472;6.628;2022-10-16T18:34:56;22.30;75.70
1259;DHT22;619;51.472;6.628;2022-10-16T18:37:22;22.30;75.70
1259;DHT22;619;51.472;6.628;2022-10-16T18:39:48;22.30;75.80
1259;DHT22;619;51.472;6.628;2022-10-16T18:42:17;22.40;75.90
1259;DHT22;619;51.472;6.628;2022-10-16T18:44:43;22.40;75.90
1259;DHT22;619;51.472;6.628;2022-10-16T18:47:11;22.40;76.10